Time;durP1;ratioP1;P1;durP2;ratioP2;P2;SDS_P1;SDS_P2;PMS_P1;PMS_P2;Temp;Humidity;BMP_temperature;BMP_pressure;BME280_temperature;BME280_humidity;BME280_pressure;Samples;Min_cycle;Max_cycle;Signal;HPM_P1;HPM_P2
2022/12/12 00:01:34;;;;;;;;;;;;;;;;;;6237386;28;20174;-76
2022/12/12 00:04:34;;;;;;;51.10;23.40;;;;;;;;;;6239853;28;20162;-76
2022/12/12 00:07:34;;;;;;;50.87;24.13;;;;;;;;;;6237886;28;20343;-76
2022/12/12 00:10:35;;;;;;;41.60;22.40;;;;;;;;;;6238959;28;20013;-76
2022/12/12 00:13:36;;;;;;;44.90;22.87;;;;;;;;;;6238602;28;20103;-76
2022/12/12 00:16:36;;;;;;;47.78;21.73;;;;;;;;;;6246382;28;20693;-76
2022/12/12 00:19:36;;;;;;;46.80;23.27;;;;;;;;;;6249418;28;20241;-76
2022/12/12 00:22:36;;;;;;;56.20;23.80;;;;;;;;;;6236992;28;20028;-76
2022/12/12 00:25:36;;;;;;;54.07;23.97;;;;;;;;;;6236275;28;20017;-76
2022/12/12 00:28:37;;;;;;;52.07;23.33;;;;;;;;;;6232088;28;20034;-75
2022/12/12 00:31:37;;;;;;;49.73;21.80;;;;;;;;;;6236926;28;20492;-75
2022/12/12 00:34:37;;;;;;;39.23;19.67;;;;;;;;;;6236664;28;20385;-75
2022/12/12 00:37:37;;;;;;;40.50;18.25;;;;;;;;;;6237612;28;20056;-75
2022/12/12 00:40:38;;;;;;;34.17;16.53;;;;;;;;;;6238048;28;20223;-75
2022/12/12 00:43:38;;;;;;;32.33;17.13;;;;;;;;;;6227151;28;20021;-75
2022/12/12 00:46:38;;;;;;;42.90;19.23;;;;;;;;;;6234143;28;20037;-75
2022/12/12 00:49:39;;;;;;;39.60;18.73;;;;;;;;;;6248263;28;20033;-75
2022/12/12 00:52:39;;;;;;;38.07;18.03;;;;;;;;;;6235204;28;20018;-75
2022/12/12 00:55:39;;;;;;;24.13;13.82;;;;;;;;;;6236054;28;20036;-75
2022/12/12 00:58:39;;;;;;;32.67;17.07;;;;;;;;;;6239391;28;20063;-76
2022/12/12 01:01:39;;;;;;;38.23;19.50;;;;;;;;;;6236591;28;20496;-75
2022/12/12 01:04:40;;;;;;;34.40;16.57;;;;;;;;;;6237812;28;20029;-74
2022/12/12 01:07:40;;;;;;;35.50;17.77;;;;;;;;;;6237893;28;20425;-75
2022/12/12 01:10:40;;;;;;;39.50;18.47;;;;;;;;;;6240437;28;20045;-73
2022/12/12 01:13:41;;;;;;;34.57;16.53;;;;;;;;;;6236911;28;20425;-74
2022/12/12 01:16:41;;;;;;;31.07;16.23;;;;;;;;;;6236976;28;20144;-74
2022/12/12 01:19:42;;;;;;;32.93;15.17;;;;;;;;;;6242320;28;20032;-75
2022/12/12 01:22:42;;;;;;;30.17;15.37;;;;;;;;;;6236528;28;20021;-74
2022/12/12 01:25:42;;;;;;;29.97;15.33;;;;;;;;;;6239186;28;20013;-75
2022/12/12 01:28:43;;;;;;;34.67;16.10;;;;;;;;;;6240869;28;20021;-74
2022/12/12 01:31:43;;;;;;;31.23;13.40;;;;;;;;;;6242592;28;20088;-74
2022/12/12 01:34:44;;;;;;;29.33;15.90;;;;;;;;;;6236155;28;20087;-74
2022/12/12 01:37:44;;;;;;;32.03;16.17;;;;;;;;;;6240578;28;20021;-74
2022/12/12 01:40:44;;;;;;;30.40;15.67;;;;;;;;;;6240587;28;20049;-76
2022/12/12 01:43:44;;;;;;;31.27;14.33;;;;;;;;;;6238795;28;20112;-75
2022/12/12 01:46:45;;;;;;;30.03;16.60;;;;;;;;;;6236420;28;20476;-75
2022/12/12 01:49:50;;;;;;;31.00;16.93;;;;;;;;;;6239201;28;20080;-75
2022/12/12 01:52:50;;;;;;;32.90;16.30;;;;;;;;;;6243241;28;20013;-74
2022/12/12 01:55:50;;;;;;;38.17;19.40;;;;;;;;;;6235810;28;20018;-74
2022/12/12 01:58:52;;;;;;;32.57;15.20;;;;;;;;;;6234417;28;20057;-74
2022/12/12 02:01:53;;;;;;;37.15;20.50;;;;;;;;;;6235628;28;20081;-74
2022/12/12 02:04:53;;;;;;;41.40;19.17;;;;;;;;;;6236709;28;20406;-74
2022/12/12 02:07:54;;;;;;;45.30;21.67;;;;;;;;;;6241423;28;20056;-74
2022/12/12 02:10:54;;;;;;;36.57;17.97;;;;;;;;;;6237141;28;20092;-74
2022/12/12 02:13:54;;;;;;;41.63;19.43;;;;;;;;;;6237810;28;20436;-76
2022/12/12 02:17:13;;;;;;;38.67;18.87;;;;;;;;;;6240963;28;20013;-74
2022/12/12 02:20:39;;;;;;;38.35;18.90;;;;;;;;;;6235603;28;20064;-74
2022/12/12 02:23:51;;;;;;;39.97;20.63;;;;;;;;;;6233769;28;20044;-75
2022/12/12 02:27:03;;;;;;;43.50;20.67;;;;;;;;;;6238352;28;20091;-74
2022/12/12 02:30:06;;;;;;;34.15;17.85;;;;;;;;;;6238837;28;20027;-74
2022/12/12 02:33:15;;;;;;;37.80;19.65;;;;;;;;;;6237229;28;20261;-74
2022/12/12 02:36:31;;;;;;;40.80;20.48;;;;;;;;;;6240846;28;20375;-74
2022/12/12 02:39:52;;;;;;;41.40;19.25;;;;;;;;;;6235107;28;20105;-74
2022/12/12 02:43:04;;;;;;;43.33;21.15;;;;;;;;;;6229214;28;20021;-74
2022/12/12 02:46:07;;;;;;;40.78;18.80;;;;;;;;;;6229998;28;20060;-74
2022/12/12 02:49:09;;;;;;;38.83;17.95;;;;;;;;;;6233437;28;20056;-74
2022/12/12 02:52:10;;;;;;;39.30;20.17;;;;;;;;;;6231722;28;20022;-74
2022/12/12 02:55:10;;;;;;;49.00;25.73;;;;;;;;;;6238935;28;20025;-74
2022/12/12 02:58:12;;;;;;;51.53;26.07;;;;;;;;;;6238900;28;20041;-73
2022/12/12 03:01:22;;;;;;;58.05;25.75;;;;;;;;;;6233267;28;20051;-73
2022/12/12 03:07:54;;;;;;;60.42;28.85;;;;;;;;;;6230799;28;20651;-74
2022/12/12 03:10:58;;;;;;;59.63;26.90;;;;;;;;;;6229616;28;20473;-73
2022/12/12 03:14:06;;;;;;;61.15;29.65;;;;;;;;;;6234943;28;20036;-75
2022/12/12 03:17:12;;;;;;;63.47;29.88;;;;;;;;;;6240563;28;20461;-73
2022/12/12 03:20:31;;;;;;;57.83;28.70;;;;;;;;;;6237041;28;20021;-73
2022/12/12 03:23:40;;;;;;;54.17;26.15;;;;;;;;;;6229554;28;20770;-73
2022/12/12 03:26:54;;;;;;;56.33;27.42;;;;;;;;;;6239448;28;20025;-74
2022/12/12 03:29:56;;;;;;;50.65;24.80;;;;;;;;;;6234507;28;20079;-74
2022/12/12 03:32:59;;;;;;;49.30;24.58;;;;;;;;;;6234799;28;20013;-73
2022/12/12 03:36:03;;;;;;;51.72;24.65;;;;;;;;;;6238213;28;20298;-73
2022/12/12 03:39:07;;;;;;;45.38;19.42;;;;;;;;;;6238073;28;20018;-73
2022/12/12 03:42:10;;;;;;;52.08;24.00;;;;;;;;;;6238866;28;20032;-73
2022/12/12 03:45:34;;;;;;;56.90;26.60;;;;;;;;;;6225624;28;20374;-73
2022/12/12 03:48:40;;;;;;;55.67;25.23;;;;;;;;;;6235509;28;20199;-73
2022/12/12 03:51:47;;;;;;;49.90;23.88;;;;;;;;;;6235316;28;20017;-73
2022/12/12 03:55:00;;;;;;;51.28;23.83;;;;;;;;;;6231064;28;20456;-74
2022/12/12 03:58:03;;;;;;;42.33;21.63;;;;;;;;;;6233837;28;20128;-73
2022/12/12 04:01:06;;;;;;;49.72;24.77;;;;;;;;;;6237636;28;20009;-73
2022/12/12 04:04:06;;;;;;;51.47;24.60;;;;;;;;;;6237379;28;20025;-73
2022/12/12 04:07:33;;;;;;;44.50;25.35;;;;;;;;;;6239164;28;20017;-73
2022/12/12 04:14:06;;;;;;;47.05;23.15;;;;;;;;;;6237091;28;20025;-73
2022/12/12 04:17:08;;;;;;;43.67;21.88;;;;;;;;;;6241389;28;20108;-73
2022/12/12 04:23:47;;;;;;;43.38;20.67;;;;;;;;;;6234491;28;20053;-74
2022/12/12 04:26:51;;;;;;;47.95;22.20;;;;;;;;;;6241214;28;20164;-74
2022/12/12 04:30:00;;;;;;;46.05;22.52;;;;;;;;;;6240096;28;20448;-73
2022/12/12 04:33:04;;;;;;;48.53;22.73;;;;;;;;;;6236390;28;20470;-75
2022/12/12 04:36:07;;;;;;;47.88;21.63;;;;;;;;;;6231548;28;20010;-73
2022/12/12 04:39:08;;;;;;;50.42;25.10;;;;;;;;;;6234468;28;20033;-73
2022/12/12 04:42:10;;;;;;;44.00;22.80;;;;;;;;;;6237045;28;20022;-74
2022/12/12 04:45:14;;;;;;;39.53;21.05;;;;;;;;;;6232657;28;20029;-74
2022/12/12 04:48:16;;;;;;;46.72;24.73;;;;;;;;;;6235333;28;20017;-73
2022/12/12 04:51:19;;;;;;;46.25;20.83;;;;;;;;;;6234362;28;20018;-74
2022/12/12 04:54:23;;;;;;;36.40;18.45;;;;;;;;;;6231474;28;20107;-73
2022/12/12 04:57:26;;;;;;;46.13;21.92;;;;;;;;;;6238552;28;20048;-74
2022/12/12 05:00:29;;;;;;;41.00;21.70;;;;;;;;;;6236583;28;20029;-73
2022/12/12 05:03:40;;;;;;;40.10;20.27;;;;;;;;;;6228902;28;20021;-74
2022/12/12 05:06:43;;;;;;;37.22;18.52;;;;;;;;;;6222380;28;20037;-74
2022/12/12 05:09:44;;;;;;;46.40;20.55;;;;;;;;;;6230069;28;20025;-73
2022/12/12 05:12:45;;;;;;;38.27;18.87;;;;;;;;;;6230760;28;20284;-73
2022/12/12 05:15:47;;;;;;;35.55;16.65;;;;;;;;;;6232625;28;20014;-73
2022/12/12 05:18:47;;;;;;;37.70;18.08;;;;;;;;;;6240110;28;20029;-73
2022/12/12 05:21:48;;;;;;;38.93;19.40;;;;;;;;;;6240906;28;20067;-74
2022/12/12 05:24:48;;;;;;;39.80;17.53;;;;;;;;;;6236327;28;20025;-73
2022/12/12 05:27:48;;;;;;;54.63;25.58;;;;;;;;;;6240784;28;20040;-73
2022/12/12 05:30:49;;;;;;;39.23;19.73;;;;;;;;;;6233845;28;20013;-74
2022/12/12 05:33:49;;;;;;;47.03;22.47;;;;;;;;;;6236338;28;20231;-74
2022/12/12 05:36:49;;;;;;;42.57;22.90;;;;;;;;;;6226164;28;20025;-74
2022/12/12 05:39:50;;;;;;;42.30;21.37;;;;;;;;;;6225476;28;20021;-74
2022/12/12 05:42:50;;;;;;;44.65;19.98;;;;;;;;;;6240236;28;20648;-74
2022/12/12 05:45:50;;;;;;;60.37;26.20;;;;;;;;;;6228778;28;20010;-73
2022/12/12 05:48:51;;;;;;;48.23;23.90;;;;;;;;;;6239603;28;20394;-73
2022/12/12 05:51:51;;;;;;;40.00;20.93;;;;;;;;;;6245753;28;20014;-74
2022/12/12 05:54:51;;;;;;;45.83;22.90;;;;;;;;;;6241209;28;20075;-74
2022/12/12 05:57:51;;;;;;;48.07;24.53;;;;;;;;;;6240320;28;20072;-74
2022/12/12 06:00:52;;;;;;;48.17;24.23;;;;;;;;;;6235957;28;20205;-74
2022/12/12 06:03:52;;;;;;;46.67;22.93;;;;;;;;;;6239827;28;20104;-73
2022/12/12 06:06:52;;;;;;;43.90;21.70;;;;;;;;;;6235440;28;20478;-74
2022/12/12 06:09:54;;;;;;;38.40;19.30;;;;;;;;;;6228768;28;20018;-74
2022/12/12 06:12:54;;;;;;;47.72;24.02;;;;;;;;;;6234457;28;20022;-74
2022/12/12 06:15:55;;;;;;;50.47;23.97;;;;;;;;;;6232337;28;20025;-75
2022/12/12 06:18:55;;;;;;;42.07;22.50;;;;;;;;;;6236374;28;20200;-73
2022/12/12 06:21:55;;;;;;;34.40;17.93;;;;;;;;;;6223300;28;20082;-74
2022/12/12 06:24:56;;;;;;;44.70;20.63;;;;;;;;;;6232088;28;20095;-73
2022/12/12 06:27:56;;;;;;;45.30;22.77;;;;;;;;;;6234191;28;20025;-73
2022/12/12 06:30:56;;;;;;;43.00;22.07;;;;;;;;;;6237552;28;20009;-73
2022/12/12 06:33:56;;;;;;;30.67;17.20;;;;;;;;;;6228624;28;20010;-75
2022/12/12 06:36:56;;;;;;;47.63;24.43;;;;;;;;;;6234405;28;20509;-74
2022/12/12 06:39:57;;;;;;;52.33;24.67;;;;;;;;;;6236256;28;20052;-73
2022/12/12 06:42:57;;;;;;;40.70;21.20;;;;;;;;;;6225978;28;20470;-74
2022/12/12 06:46:01;;;;;;;46.85;22.50;;;;;;;;;;6224275;28;20517;-74
2022/12/12 06:49:05;;;;;;;44.05;24.45;;;;;;;;;;6234496;28;20294;-74
2022/12/12 06:52:05;;;;;;;49.42;25.63;;;;;;;;;;6235639;28;20045;-74
2022/12/12 06:55:06;;;;;;;39.83;19.17;;;;;;;;;;6232586;28;20057;-74
2022/12/12 06:58:06;;;;;;;37.60;18.97;;;;;;;;;;6222637;28;20049;-74
2022/12/12 07:01:06;;;;;;;37.20;20.90;;;;;;;;;;6232523;28;20117;-75
2022/12/12 07:04:06;;;;;;;49.07;23.07;;;;;;;;;;6236621;28;20263;-75
2022/12/12 07:07:06;;;;;;;45.37;25.83;;;;;;;;;;6235429;28;20029;-74
2022/12/12 07:10:07;;;;;;;55.78;24.33;;;;;;;;;;6236766;28;20059;-75
2022/12/12 07:13:07;;;;;;;48.53;24.53;;;;;;;;;;6230683;28;20276;-75
2022/12/12 07:16:07;;;;;;;48.20;24.15;;;;;;;;;;6222945;28;20069;-74
2022/12/12 07:19:08;;;;;;;59.27;23.70;;;;;;;;;;6240367;28;20037;-75
2022/12/12 07:22:08;;;;;;;53.53;26.60;;;;;;;;;;6219238;28;20029;-75
2022/12/12 07:25:08;;;;;;;55.30;28.87;;;;;;;;;;6217893;28;20421;-74
2022/12/12 07:28:09;;;;;;;50.17;23.80;;;;;;;;;;6224006;28;20033;-77
2022/12/12 07:31:11;;;;;;;53.95;26.80;;;;;;;;;;6225446;28;20022;-76
2022/12/12 07:34:11;;;;;;;56.70;27.80;;;;;;;;;;6221553;28;20466;-76
2022/12/12 07:37:11;;;;;;;47.03;24.13;;;;;;;;;;6226731;28;20485;-75
2022/12/12 07:40:11;;;;;;;46.10;22.47;;;;;;;;;;6222425;28;20018;-75
2022/12/12 07:43:12;;;;;;;45.17;21.93;;;;;;;;;;6226375;28;20113;-76
2022/12/12 07:46:13;;;;;;;58.83;27.50;;;;;;;;;;6231348;28;20409;-75
2022/12/12 07:49:14;;;;;;;56.08;28.48;;;;;;;;;;6222628;28;20032;-75
2022/12/12 07:52:14;;;;;;;53.77;26.37;;;;;;;;;;6221828;28;20397;-76
2022/12/12 07:55:14;;;;;;;52.03;26.37;;;;;;;;;;6214254;28;20509;-77
2022/12/12 07:58:14;;;;;;;49.37;25.53;;;;;;;;;;6214691;28;20057;-77
2022/12/12 08:01:17;;;;;;;50.50;27.60;;;;;;;;;;6220399;28;20029;-77
2022/12/12 08:04:17;;;;;;;55.78;26.60;;;;;;;;;;6223878;28;20022;-76
2022/12/12 08:07:17;;;;;;;61.60;30.63;;;;;;;;;;6224207;28;20032;-77
2022/12/12 08:10:17;;;;;;;52.10;24.57;;;;;;;;;;6222375;28;20317;-77
2022/12/12 08:13:18;;;;;;;48.40;27.60;;;;;;;;;;6228803;28;20029;-76
2022/12/12 08:16:20;;;;;;;48.20;23.40;;;;;;;;;;6234691;28;20021;-77
2022/12/12 08:19:20;;;;;;;60.03;28.30;;;;;;;;;;6232898;28;20422;-77
2022/12/12 08:22:21;;;;;;;48.67;24.83;;;;;;;;;;6222993;28;20041;-77
2022/12/12 08:25:21;;;;;;;56.03;29.27;;;;;;;;;;6237565;28;20044;-77
2022/12/12 08:28:21;;;;;;;53.53;27.60;;;;;;;;;;6225891;28;20013;-77
2022/12/12 08:31:21;;;;;;;64.73;29.73;;;;;;;;;;6231076;28;20010;-77
2022/12/12 08:34:22;;;;;;;59.33;27.20;;;;;;;;;;6220473;28;20135;-77
2022/12/12 08:37:23;;;;;;;53.83;25.63;;;;;;;;;;6222965;28;20030;-78
2022/12/12 08:40:24;;;;;;;67.00;34.10;;;;;;;;;;6218888;28;20552;-77
2022/12/12 08:43:24;;;;;;;62.30;29.87;;;;;;;;;;6218757;28;20048;-77
2022/12/12 08:46:24;;;;;;;67.57;31.15;;;;;;;;;;6220402;28;20033;-78
2022/12/12 08:49:24;;;;;;;46.80;25.83;;;;;;;;;;6219411;28;20038;-78
2022/12/12 08:52:24;;;;;;;76.72;36.67;;;;;;;;;;6217528;28;20044;-77
2022/12/12 08:55:25;;;;;;;72.27;34.60;;;;;;;;;;6217770;28;20380;-78
2022/12/12 08:58:25;;;;;;;67.97;32.73;;;;;;;;;;6214675;28;20355;-77
2022/12/12 09:01:25;;;;;;;60.43;31.10;;;;;;;;;;6217311;28;20512;-77
2022/12/12 09:04:26;;;;;;;65.33;28.30;;;;;;;;;;6219086;28;20285;-77
2022/12/12 09:07:26;;;;;;;74.20;35.37;;;;;;;;;;6219830;28;20026;-77
2022/12/12 09:10:26;;;;;;;74.13;32.53;;;;;;;;;;6221354;28;20028;-78
2022/12/12 09:13:26;;;;;;;68.80;31.63;;;;;;;;;;6219703;28;20084;-77
2022/12/12 09:16:28;;;;;;;86.07;37.63;;;;;;;;;;6216070;28;20014;-77
2022/12/12 09:19:28;;;;;;;;;;;;;;;;;;6220768;28;20049;-77
2022/12/12 09:22:29;;;;;;;79.80;36.78;;;;;;;;;;6232314;28;19953;-78
2022/12/12 09:25:29;;;;;;;84.50;40.93;;;;;;;;;;6220738;28;20053;-77
2022/12/12 09:28:29;;;;;;;75.70;34.57;;;;;;;;;;6219208;28;20400;-78
2022/12/12 09:31:29;;;;;;;83.47;38.57;;;;;;;;;;6217239;28;20022;-77
2022/12/12 09:34:30;;;;;;;76.37;33.57;;;;;;;;;;6214063;28;20484;-77
2022/12/12 09:37:30;;;;;;;78.90;35.55;;;;;;;;;;6220898;28;20057;-79
2022/12/12 09:40:33;;;;;;;74.80;35.77;;;;;;;;;;6221122;28;20022;-78
2022/12/12 09:43:37;;;;;;;73.07;35.95;;;;;;;;;;6232588;28;20040;-78
2022/12/12 09:46:54;;;;;;;71.57;35.53;;;;;;;;;;6236230;28;20045;-78
2022/12/12 09:49:55;;;;;;;76.28;37.50;;;;;;;;;;6225509;28;20021;-78
2022/12/12 09:52:57;;;;;;;77.18;36.90;;;;;;;;;;6224240;28;20096;-78
2022/12/12 09:56:08;;;;;;;66.47;32.78;;;;;;;;;;6231308;28;20504;-78
2022/12/12 09:59:21;;;;;;;75.50;35.33;;;;;;;;;;6237470;28;20132;-78
2022/12/12 10:02:39;;;;;;;67.55;33.35;;;;;;;;;;6243636;28;20530;-79
2022/12/12 10:05:55;;;;;;;79.68;38.75;;;;;;;;;;6243185;28;20440;-80
2022/12/12 10:09:07;;;;;;;81.53;39.83;;;;;;;;;;6240590;28;20020;-79
2022/12/12 10:12:11;;;;;;;69.82;36.95;;;;;;;;;;6228497;28;20099;-79
2022/12/12 10:15:30;;;;;;;74.90;37.42;;;;;;;;;;6225484;28;20029;-79
2022/12/12 10:18:35;;;;;;;67.28;32.45;;;;;;;;;;6230714;28;20022;-81
2022/12/12 10:21:39;;;;;;;84.18;38.72;;;;;;;;;;6228972;28;20018;-80
2022/12/12 10:24:45;;;;;;;88.15;38.28;;;;;;;;;;6223362;28;20411;-80
2022/12/12 10:27:45;;;;;;;71.40;34.10;;;;;;;;;;6233740;28;20075;-80
2022/12/12 10:31:04;;;;;;;74.63;38.13;;;;;;;;;;6237155;28;20010;-80
2022/12/12 10:34:23;;;;;;;76.28;39.78;;;;;;;;;;6234411;28;20010;-80
2022/12/12 10:37:31;;;;;;;74.63;39.70;;;;;;;;;;6238780;28;20021;-80
2022/12/12 10:41:04;;;;;;;79.78;38.28;;;;;;;;;;6244751;28;20032;-81
2022/12/12 10:44:11;;;;;;;80.85;38.72;;;;;;;;;;6233336;28;20033;-80
2022/12/12 10:47:13;;;;;;;75.28;34.03;;;;;;;;;;6245378;28;20022;-80
2022/12/12 10:50:25;;;;;;;78.85;38.83;;;;;;;;;;6237515;28;20108;-81
2022/12/12 10:53:26;;;;;;;70.82;34.53;;;;;;;;;;6233930;28;20024;-80
2022/12/12 10:56:28;;;;;;;76.13;37.10;;;;;;;;;;6237862;28;20389;-81
2022/12/12 10:59:28;;;;;;;75.60;37.75;;;;;;;;;;6231296;28;20065;-83
2022/12/12 11:02:28;;;;;;;69.40;33.23;;;;;;;;;;6228167;28;20298;-82
2022/12/12 11:05:33;;;;;;;76.10;37.97;;;;;;;;;;6241590;28;20017;-82
2022/12/12 11:08:34;;;;;;;72.70;34.90;;;;;;;;;;6228063;28;20462;-82
2022/12/12 11:11:34;;;;;;;84.53;38.33;;;;;;;;;;6235374;28;20019;-84
2022/12/12 11:14:36;;;;;;;85.40;39.77;;;;;;;;;;6228213;28;20088;-83
2022/12/12 11:17:38;;;;;;;74.20;35.78;;;;;;;;;;6239951;28;20543;-82
2022/12/12 11:20:49;;;;;;;80.30;38.55;;;;;;;;;;6239495;28;20117;-82
2022/12/12 11:23:52;;;;;;;78.43;37.03;;;;;;;;;;6244114;28;20021;-84
2022/12/12 11:27:01;;;;;;;79.80;40.30;;;;;;;;;;6230280;28;20025;-84
2022/12/12 11:30:06;;;;;;;60.28;28.85;;;;;;;;;;6231191;28;20520;-85
2022/12/12 11:33:07;;;;;;;80.15;38.53;;;;;;;;;;6227602;28;20048;-84
2022/12/12 11:36:12;;;;;;;76.57;38.87;;;;;;;;;;6226545;28;20022;-85
2022/12/12 11:39:14;;;;;;;68.88;34.22;;;;;;;;;;6224056;28;20071;-86
2022/12/12 11:42:14;;;;;;;82.53;37.60;;;;;;;;;;6263216;28;20038;-85
2022/12/12 11:45:14;;;;;;;75.20;35.75;;;;;;;;;;6233514;28;20100;-86
2022/12/12 11:48:41;;;;;;;77.30;37.03;;;;;;;;;;6234292;28;20025;-86
2022/12/12 11:51:42;;;;;;;61.80;31.20;;;;;;;;;;6242253;28;20339;-86
2022/12/12 11:54:42;;;;;;;72.97;34.80;;;;;;;;;;6241343;28;20025;-87
2022/12/12 11:57:48;;;;;;;72.07;35.63;;;;;;;;;;6236397;28;20088;-87
2022/12/12 12:00:57;;;;;;;66.78;33.55;;;;;;;;;;6242351;28;20053;-87
2022/12/12 12:04:16;;;;;;;71.97;35.50;;;;;;;;;;6232277;28;20032;-87
2022/12/12 12:07:33;;;;;;;59.47;30.90;;;;;;;;;;6239866;28;20290;-88
2022/12/12 12:10:36;;;;;;;65.13;35.70;;;;;;;;;;6223828;28;20116;-87
2022/12/12 12:13:50;;;;;;;60.83;31.42;;;;;;;;;;6233301;28;20025;-87
2022/12/12 12:16:57;;;;;;;79.03;35.55;;;;;;;;;;6235067;28;20136;-87
2022/12/12 12:20:16;;;;;;;72.43;36.78;;;;;;;;;;6248510;28;20025;-86
2022/12/12 12:23:23;;;;;;;78.05;39.45;;;;;;;;;;6238319;28;20025;-86
2022/12/12 12:26:30;;;;;;;81.63;38.55;;;;;;;;;;6244551;28;20043;-86
2022/12/12 12:29:50;;;;;;;72.38;37.70;;;;;;;;;;6235789;28;20393;-86
2022/12/12 12:33:04;;;;;;;70.57;34.90;;;;;;;;;;6238288;28;20020;-86
2022/12/12 12:36:17;;;;;;;73.40;36.90;;;;;;;;;;6238639;28;20024;-86
2022/12/12 12:39:23;;;;;;;70.18;35.35;;;;;;;;;;6238884;28;20020;-86
2022/12/12 12:42:24;;;;;;;79.78;39.50;;;;;;;;;;6232991;28;20638;-85
2022/12/12 12:45:24;;;;;;;72.35;35.20;;;;;;;;;;6240608;28;20219;-85
2022/12/12 12:48:29;;;;;;;69.37;38.43;;;;;;;;;;6233543;28;20516;-85
2022/12/12 12:51:37;;;;;;;76.68;38.50;;;;;;;;;;6235511;28;20018;-84
2022/12/12 12:54:38;;;;;;;72.70;37.05;;;;;;;;;;6228738;28;20010;-84
2022/12/12 12:57:41;;;;;;;83.10;40.85;;;;;;;;;;6232324;28;20037;-84
2022/12/12 13:00:41;;;;;;;79.40;41.22;;;;;;;;;;6234898;28;20014;-83
2022/12/12 13:03:50;;;;;;;89.80;43.97;;;;;;;;;;6228262;28;20061;-83
2022/12/12 13:07:22;;;;;;;71.63;32.13;;;;;;;;;;6226471;28;20095;-83
2022/12/12 13:10:24;;;;;;;66.22;34.15;;;;;;;;;;6216405;28;20030;-83
2022/12/12 13:13:29;;;;;;;48.60;27.63;;;;;;;;;;6239676;28;20029;-82
2022/12/12 13:16:31;;;;;;;63.80;33.92;;;;;;;;;;6233900;28;20032;-82
2022/12/12 13:19:31;;;;;;;;;;;;;;;;;;6238317;28;20041;-82
2022/12/12 13:22:45;;;;;;;61.60;31.35;;;;;;;;;;6232336;28;19913;-82
2022/12/12 13:25:45;;;;;;;64.88;33.05;;;;;;;;;;6236280;28;20279;-82
2022/12/12 13:28:48;;;;;;;56.35;30.13;;;;;;;;;;6240335;28;20274;-82
2022/12/12 13:32:00;;;;;;;59.25;30.23;;;;;;;;;;6251767;28;20025;-82
2022/12/12 13:35:07;;;;;;;60.17;31.45;;;;;;;;;;6244286;28;20034;-81
2022/12/12 13:38:15;;;;;;;59.65;29.05;;;;;;;;;;6244697;28;20029;-81
2022/12/12 13:41:15;;;;;;;56.97;27.55;;;;;;;;;;6241451;28;20057;-81
2022/12/12 13:44:36;;;;;;;54.60;23.67;;;;;;;;;;6240752;28;20032;-81
2022/12/12 13:47:36;;;;;;;49.47;23.52;;;;;;;;;;6239476;28;20322;-81
2022/12/12 13:50:36;;;;;;;52.08;28.95;;;;;;;;;;6242579;28;20068;-80
2022/12/12 13:53:36;;;;;;;41.23;21.20;;;;;;;;;;6232711;28;20075;-81
2022/12/12 13:57:04;;;;;;;58.07;30.53;;;;;;;;;;6237683;28;20018;-80
2022/12/12 14:00:07;;;;;;;64.88;33.05;;;;;;;;;;6231248;28;20045;-80
2022/12/12 14:03:10;;;;;;;95.72;45.78;;;;;;;;;;6239238;28;20108;-79
2022/12/12 14:06:11;;;;;;;103.10;46.05;;;;;;;;;;6227952;28;20037;-80
2022/12/12 14:09:19;;;;;;;63.67;33.23;;;;;;;;;;6231401;28;20022;-80
2022/12/12 14:12:23;;;;;;;60.58;31.35;;;;;;;;;;6230838;28;20013;-80
2022/12/12 14:15:28;;;;;;;56.13;29.30;;;;;;;;;;6228541;28;20401;-79
2022/12/12 14:18:47;;;;;;;45.65;24.83;;;;;;;;;;6256174;28;20025;-79
2022/12/12 14:21:47;;;;;;;43.35;24.50;;;;;;;;;;6238119;28;20057;-79
2022/12/12 14:25:26;;;;;;;39.97;22.53;;;;;;;;;;6235321;28;20032;-78
2022/12/12 14:28:28;;;;;;;43.90;23.85;;;;;;;;;;6222412;28;20433;-78
2022/12/12 14:31:29;;;;;;;40.38;23.83;;;;;;;;;;6224603;28;20506;-79
2022/12/12 14:34:35;;;;;;;38.57;19.60;;;;;;;;;;6227770;28;20021;-79
2022/12/12 14:37:45;;;;;;;55.17;25.27;;;;;;;;;;6233606;28;20036;-79
2022/12/12 14:40:48;;;;;;;53.05;24.85;;;;;;;;;;6234487;28;20116;-78
2022/12/12 14:43:51;;;;;;;50.95;23.80;;;;;;;;;;6239402;28;20155;-78
2022/12/12 14:46:51;;;;;;;46.13;23.33;;;;;;;;;;6237395;28;20033;-78
2022/12/12 14:50:08;;;;;;;60.70;27.57;;;;;;;;;;6231923;28;20097;-78
2022/12/12 14:53:14;;;;;;;49.55;25.13;;;;;;;;;;6228107;28;20017;-78
2022/12/12 14:56:16;;;;;;;49.20;23.05;;;;;;;;;;6233459;28;20033;-77
2022/12/12 14:59:22;;;;;;;53.70;23.58;;;;;;;;;;6238600;28;20670;-78
2022/12/12 15:02:28;;;;;;;46.70;22.33;;;;;;;;;;6237768;28;20021;-79
2022/12/12 15:05:28;;;;;;;53.17;25.60;;;;;;;;;;6240014;28;20055;-78
2022/12/12 15:08:29;;;;;;;63.47;30.88;;;;;;;;;;6239239;28;20025;-78
2022/12/12 15:11:29;;;;;;;63.83;28.93;;;;;;;;;;6237039;28;20056;-77
2022/12/12 15:14:30;;;;;;;50.00;25.67;;;;;;;;;;6232192;28;20036;-78
2022/12/12 15:17:31;;;;;;;53.87;23.97;;;;;;;;;;6236673;28;20350;-78
2022/12/12 15:20:32;;;;;;;;;;;;;;;;;;6243529;28;20017;-78
2022/12/12 15:23:32;;;;;;;49.65;25.05;;;;;;;;;;6241925;28;19909;-77
2022/12/12 15:26:32;;;;;;;48.87;24.07;;;;;;;;;;6242137;28;20362;-78
2022/12/12 15:29:34;;;;;;;43.43;21.87;;;;;;;;;;6242441;28;20014;-78
2022/12/12 15:32:34;;;;;;;44.33;23.55;;;;;;;;;;6242913;28;20033;-77
2022/12/12 15:35:34;;;;;;;50.73;24.03;;;;;;;;;;6235916;28;20017;-79
2022/12/12 15:38:35;;;;;;;41.97;20.17;;;;;;;;;;6239044;28;20018;-77
2022/12/12 15:41:35;;;;;;;50.27;25.70;;;;;;;;;;6237904;28;20032;-77
2022/12/12 15:44:36;;;;;;;50.97;25.57;;;;;;;;;;6232313;28;20120;-77
2022/12/12 15:47:36;;;;;;;54.73;26.00;;;;;;;;;;6229951;28;20026;-76
2022/12/12 15:50:42;;;;;;;44.37;20.43;;;;;;;;;;6229422;28;20017;-77
2022/12/12 15:53:49;;;;;;;41.42;22.27;;;;;;;;;;6240425;28;20090;-77
2022/12/12 15:56:49;;;;;;;39.45;20.67;;;;;;;;;;6229149;28;20021;-76
2022/12/12 15:59:52;;;;;;;52.50;24.80;;;;;;;;;;6241385;28;20044;-77
2022/12/12 16:02:59;;;;;;;48.60;25.92;;;;;;;;;;6237942;28;20029;-77
2022/12/12 16:06:01;;;;;;;47.38;24.88;;;;;;;;;;6230297;28;20086;-77
2022/12/12 16:09:21;;;;;;;66.78;34.65;;;;;;;;;;6231617;28;20504;-77
2022/12/12 16:12:41;;;;;;;73.97;36.22;;;;;;;;;;6246737;28;20026;-76
2022/12/12 16:15:41;;;;;;;68.07;33.75;;;;;;;;;;6235487;28;20109;-77
2022/12/12 16:18:41;;;;;;;66.93;30.43;;;;;;;;;;6244459;28;20017;-77
2022/12/12 16:21:42;;;;;;;85.07;34.00;;;;;;;;;;6232738;28;20045;-77
2022/12/12 16:24:46;;;;;;;65.37;30.67;;;;;;;;;;6227408;28;20508;-77
2022/12/12 16:27:52;;;;;;;75.47;34.50;;;;;;;;;;6232505;28;20025;-76
2022/12/12 16:30:58;;;;;;;66.05;35.58;;;;;;;;;;6234507;28;20037;-76
2022/12/12 16:34:00;;;;;;;58.90;29.40;;;;;;;;;;6227669;28;20549;-77
2022/12/12 16:37:00;;;;;;;65.85;31.77;;;;;;;;;;6229178;28;20096;-76
2022/12/12 16:40:01;;;;;;;75.13;37.30;;;;;;;;;;6232536;28;20029;-77
2022/12/12 16:43:01;;;;;;;73.93;36.97;;;;;;;;;;6233055;28;20018;-76
2022/12/12 16:46:02;;;;;;;74.13;37.03;;;;;;;;;;6233206;28;20108;-76
2022/12/12 16:49:03;;;;;;;80.17;36.83;;;;;;;;;;6220272;28;20029;-76
2022/12/12 16:52:03;;;;;;;74.10;36.15;;;;;;;;;;6231704;28;20317;-77
2022/12/12 16:55:24;;;;;;;83.53;38.15;;;;;;;;;;6216248;28;20694;-76
2022/12/12 16:58:24;;;;;;;75.53;36.10;;;;;;;;;;6219453;28;20053;-77
2022/12/12 17:01:24;;;;;;;62.83;29.13;;;;;;;;;;6224079;28;20060;-76
2022/12/12 17:04:25;;;;;;;48.43;24.80;;;;;;;;;;6231388;28;20029;-77
2022/12/12 17:07:25;;;;;;;53.60;28.47;;;;;;;;;;6235407;28;20030;-76
2022/12/12 17:10:25;;;;;;;57.50;30.07;;;;;;;;;;6235257;28;20254;-77
2022/12/12 17:13:26;;;;;;;79.93;40.90;;;;;;;;;;6232591;28;20153;-76
2022/12/12 17:16:26;;;;;;;63.00;30.50;;;;;;;;;;6228538;28;20025;-76
2022/12/12 17:19:26;;;;;;;70.43;31.10;;;;;;;;;;6237939;28;20112;-77
2022/12/12 17:22:26;;;;;;;45.17;21.27;;;;;;;;;;6231022;28;20018;-76
2022/12/12 17:25:26;;;;;;;43.87;21.80;;;;;;;;;;6235537;28;20017;-76
2022/12/12 17:28:27;;;;;;;40.60;22.30;;;;;;;;;;6232503;28;20152;-77
2022/12/12 17:31:27;;;;;;;46.90;21.57;;;;;;;;;;6233836;28;20025;-77
2022/12/12 17:34:27;;;;;;;45.90;21.03;;;;;;;;;;6232236;28;20504;-77
2022/12/12 17:37:27;;;;;;;55.83;25.40;;;;;;;;;;6233448;28;20018;-77
2022/12/12 17:40:28;;;;;;;55.97;25.20;;;;;;;;;;6232136;28;20614;-78
2022/12/12 17:43:28;;;;;;;44.90;21.47;;;;;;;;;;6235029;28;20033;-77
2022/12/12 17:46:28;;;;;;;56.63;25.60;;;;;;;;;;6226559;28;20510;-78
2022/12/12 17:49:29;;;;;;;52.97;23.63;;;;;;;;;;6216386;28;20026;-77
2022/12/12 17:52:29;;;;;;;45.63;20.80;;;;;;;;;;6219872;28;20052;-78
2022/12/12 17:55:29;;;;;;;41.57;21.67;;;;;;;;;;6221339;28;20043;-77
2022/12/12 17:58:33;;;;;;;40.07;18.70;;;;;;;;;;6237037;28;20426;-77
2022/12/12 18:01:34;;;;;;;43.45;20.35;;;;;;;;;;6229489;28;20117;-76